createdAt,value
2018-05-03T00:00:52.135Z,44.00
2018-05-03T00:03:19.607Z,44.10
2018-05-03T00:05:47.084Z,44.20
2018-05-03T00:08:15.316Z,44.40
2018-05-03T00:10:42.768Z,44.30
2018-05-03T00:13:10.240Z,44.30
2018-05-03T00:15:37.700Z,44.50
2018-05-03T00:18:05.158Z,44.50
2018-05-03T00:20:32.626Z,44.60
2018-05-03T00:23:00.081Z,44.70
2018-05-03T00:25:27.540Z,44.80
2018-05-03T00:27:55.001Z,44.80
2018-05-03T00:30:22.456Z,44.90
2018-05-03T00:32:49.903Z,44.90
2018-05-03T00:35:17.367Z,45.00
2018-05-03T00:37:44.824Z,45.10
2018-05-03T00:40:12.285Z,45.20
2018-05-03T00:42:39.739Z,45.20
2018-05-03T00:45:07.997Z,45.20
2018-05-03T00:47:35.428Z,45.20
2018-05-03T00:50:02.880Z,45.30
2018-05-03T00:52:30.337Z,45.30
2018-05-03T00:54:58.944Z,45.30
2018-05-03T00:57:26.400Z,45.40
2018-05-03T00:59:53.859Z,45.40
2018-05-03T01:02:21.319Z,45.50
2018-05-03T01:04:48.777Z,46.10
2018-05-03T01:07:16.263Z,45.60
2018-05-03T01:09:43.719Z,45.70
2018-05-03T01:12:11.160Z,45.70
2018-05-03T01:14:38.647Z,45.60
2018-05-03T01:17:06.877Z,45.80
2018-05-03T01:19:34.333Z,45.80
2018-05-03T01:22:01.785Z,45.90
2018-05-03T01:24:29.251Z,45.80
2018-05-03T01:26:56.696Z,45.90
2018-05-03T01:29:24.164Z,45.90
2018-05-03T01:31:51.625Z,45.90
2018-05-03T01:34:19.100Z,45.90
2018-05-03T01:36:47.356Z,46.00
2018-05-03T01:39:14.830Z,45.90
2018-05-03T01:41:42.302Z,46.00
2018-05-03T01:44:09.760Z,46.00
2018-05-03T01:46:37.218Z,46.10
2018-05-03T01:49:05.473Z,46.10
2018-05-03T01:51:32.929Z,46.00
2018-05-03T01:54:00.395Z,46.00
2018-05-03T01:56:27.860Z,46.00
2018-05-03T01:58:55.320Z,46.00
2018-05-03T02:01:22.777Z,46.00
2018-05-03T02:03:50.225Z,46.00
2018-05-03T02:06:17.694Z,46.20
2018-05-03T02:08:45.149Z,46.30
2018-05-03T02:11:12.604Z,46.30
2018-05-03T02:13:40.064Z,46.40
2018-05-03T02:16:07.520Z,46.30
2018-05-03T02:18:34.988Z,46.20
2018-05-03T02:21:03.229Z,46.60
2018-05-03T02:23:30.685Z,46.50
2018-05-03T02:25:58.148Z,46.60
2018-05-03T02:28:25.601Z,46.80
2018-05-03T02:30:53.057Z,46.80
2018-05-03T02:33:20.512Z,46.70
2018-05-03T02:35:47.973Z,46.80
2018-05-03T02:38:15.437Z,46.90
2018-05-03T02:40:42.887Z,46.80
2018-05-03T02:43:10.348Z,46.90
2018-05-03T02:45:37.830Z,46.90
2018-05-03T02:48:06.070Z,46.90
2018-05-03T02:50:33.536Z,46.70
2018-05-03T02:53:00.995Z,46.90
2018-05-03T02:55:28.476Z,47.00
2018-05-03T02:58:13.396Z,47.20
2018-05-03T03:00:58.363Z,47.20
2018-05-03T03:03:43.564Z,47.30
2018-05-03T03:06:28.629Z,47.30
2018-05-03T03:12:27.194Z,47.40
2018-05-03T03:15:27.743Z,47.60
2018-05-03T03:18:10.692Z,47.60
2018-05-03T03:21:01.929Z,47.70
2018-05-03T03:23:46.780Z,47.70
2018-05-03T03:29:44.892Z,47.80
2018-05-03T03:32:24.281Z,47.90
2018-05-03T03:38:11.061Z,48.10
2018-05-03T03:40:50.321Z,48.10
2018-05-03T03:46:18.376Z,48.30
2018-05-03T03:48:45.840Z,48.40
2018-05-03T03:51:13.296Z,48.40
2018-05-03T03:53:41.548Z,48.50
2018-05-03T03:56:09.004Z,48.40
2018-05-03T03:58:36.482Z,48.60
2018-05-03T04:01:03.945Z,48.60
2018-05-03T04:03:31.404Z,48.70
2018-05-03T04:05:58.848Z,48.70
2018-05-03T04:08:26.353Z,48.70
2018-05-03T04:10:53.764Z,48.90
2018-05-03T04:13:21.240Z,48.90
2018-05-03T04:15:48.690Z,49.00
2018-05-03T04:18:27.949Z,49.00
2018-05-03T04:21:08.645Z,49.00
2018-05-03T04:23:47.988Z,49.00
2018-05-03T04:26:15.437Z,49.00
2018-05-03T04:28:42.896Z,49.00
2018-05-03T04:31:10.380Z,49.10
2018-05-03T04:33:37.856Z,49.00
2018-05-03T04:36:05.320Z,49.10
2018-05-03T04:38:32.776Z,49.20
2018-05-03T04:41:00.235Z,49.20
2018-05-03T04:43:27.711Z,49.10
2018-05-03T04:45:55.920Z,49.20
2018-05-03T04:48:23.379Z,49.10
2018-05-03T04:50:50.857Z,49.20
2018-05-03T04:53:18.305Z,49.30
2018-05-03T04:55:46.540Z,49.30
2018-05-03T04:58:13.993Z,49.30
2018-05-03T05:00:42.224Z,49.40
2018-05-03T05:03:09.676Z,49.40
2018-05-03T05:05:37.151Z,49.30
2018-05-03T05:08:04.609Z,49.30
2018-05-03T05:10:32.093Z,49.80
2018-05-03T05:13:00.334Z,49.40
2018-05-03T05:15:27.800Z,49.40
2018-05-03T05:17:55.410Z,49.40
2018-05-03T05:20:22.885Z,49.40
2018-05-03T05:22:50.340Z,49.40
2018-05-03T05:25:17.800Z,50.00
2018-05-03T05:27:45.252Z,49.40
2018-05-03T05:30:12.708Z,49.40
2018-05-03T05:32:40.165Z,49.40
2018-05-03T05:35:07.649Z,49.40
2018-05-03T05:37:35.873Z,49.40
2018-05-03T05:40:04.108Z,49.40
2018-05-03T05:42:31.576Z,49.40
2018-05-03T05:44:59.044Z,49.30
2018-05-03T05:47:27.277Z,49.40
2018-05-03T05:49:54.934Z,49.40
2018-05-03T05:52:22.394Z,49.30
2018-05-03T05:54:49.860Z,49.40
2018-05-03T05:57:17.326Z,49.30
2018-05-03T05:59:44.783Z,49.30
2018-05-03T06:02:12.252Z,49.30
2018-05-03T06:04:39.719Z,49.20
2018-05-03T06:07:07.179Z,49.30
2018-05-03T06:09:34.637Z,49.30
2018-05-03T06:12:02.773Z,49.20
2018-05-03T06:14:30.241Z,49.20
2018-05-03T06:16:57.745Z,49.10
2018-05-03T06:19:25.206Z,49.10
2018-05-03T06:21:52.739Z,49.00
2018-05-03T06:24:20.226Z,48.90
2018-05-03T06:26:47.695Z,48.70
2018-05-03T06:29:15.140Z,48.60
2018-05-03T06:31:42.601Z,48.40
2018-05-03T06:34:10.056Z,48.20
2018-05-03T06:36:38.297Z,47.90
2018-05-03T06:39:05.755Z,47.90
2018-05-03T06:41:33.212Z,47.90
2018-05-03T06:44:00.660Z,47.80
2018-05-03T06:46:28.136Z,47.70
2018-05-03T06:48:55.595Z,47.60
2018-05-03T06:51:23.048Z,47.60
2018-05-03T06:53:50.537Z,47.50
2018-05-03T06:56:17.992Z,47.40
2018-05-03T06:58:46.224Z,47.00
2018-05-03T07:01:13.690Z,47.00
2018-05-03T07:03:41.153Z,46.30
2018-05-03T07:06:08.605Z,46.00
2018-05-03T07:08:36.063Z,45.50
2018-05-03T07:11:03.525Z,45.30
2018-05-03T07:13:31.789Z,44.50
2018-05-03T07:15:59.267Z,44.50
2018-05-03T07:18:27.513Z,43.80
2018-05-03T07:20:54.962Z,43.80
2018-05-03T07:23:22.420Z,43.50
2018-05-03T07:25:49.888Z,43.40
2018-05-03T07:28:17.351Z,43.00
2018-05-03T07:30:45.568Z,42.50
2018-05-03T07:33:13.027Z,42.50
2018-05-03T07:35:40.483Z,42.10
2018-05-03T07:38:07.937Z,41.80
2018-05-03T07:40:36.266Z,41.60
2018-05-03T07:43:03.645Z,41.60
2018-05-03T07:45:31.096Z,41.50
2018-05-03T07:47:58.561Z,41.50
2018-05-03T07:50:26.789Z,41.40
2018-05-03T07:52:54.271Z,41.40
2018-05-03T07:55:21.790Z,41.40
2018-05-03T07:57:49.256Z,41.30
2018-05-03T08:00:16.745Z,41.30
2018-05-03T08:02:44.218Z,41.40
2018-05-03T08:05:11.677Z,41.40
2018-05-03T08:07:39.139Z,41.50
2018-05-03T08:10:06.588Z,41.50
2018-05-03T08:12:34.100Z,41.30
2018-05-03T08:15:01.498Z,41.40
2018-05-03T08:17:28.969Z,41.40
2018-05-03T08:19:56.421Z,41.40
2018-05-03T08:22:24.750Z,41.30
2018-05-03T08:24:52.880Z,41.20
2018-05-03T08:27:20.336Z,41.20
2018-05-03T08:29:48.568Z,41.00
2018-05-03T08:32:16.024Z,41.00
2018-05-03T08:34:43.493Z,40.80
2018-05-03T08:37:11.708Z,40.50
2018-05-03T08:39:39.961Z,40.20
2018-05-03T08:42:07.423Z,40.20
2018-05-03T08:44:34.884Z,40.10
2018-05-03T08:47:02.496Z,39.80
2018-05-03T08:49:29.969Z,39.60
2018-05-03T08:51:57.424Z,39.50
2018-05-03T08:54:24.906Z,39.30
2018-05-03T08:56:52.357Z,39.00
2018-05-03T08:59:19.812Z,38.50
2018-05-03T09:01:47.356Z,38.10
2018-05-03T09:04:15.522Z,37.80
2018-05-03T09:06:42.991Z,37.70
2018-05-03T09:09:10.490Z,37.40
2018-05-03T09:11:39.036Z,36.80
2018-05-03T09:14:06.495Z,36.80
2018-05-03T09:16:34.716Z,35.90
2018-05-03T09:19:02.949Z,35.40
2018-05-03T09:21:30.404Z,35.40
2018-05-03T09:23:57.890Z,35.00
2018-05-03T09:26:25.332Z,34.60
2018-05-03T09:28:52.804Z,34.40
2018-05-03T09:31:20.253Z,34.20
2018-05-03T09:33:47.718Z,33.90
2018-05-03T09:36:15.164Z,33.90
2018-05-03T09:38:43.089Z,33.40
2018-05-03T09:41:10.759Z,33.20
2018-05-03T09:43:39.147Z,32.30
2018-05-03T09:46:06.676Z,32.30
2018-05-03T09:48:34.201Z,31.80
2018-05-03T09:51:01.649Z,31.60
2018-05-03T09:53:29.121Z,31.60
2018-05-03T09:55:56.582Z,31.80
2018-05-03T09:58:24.042Z,32.00
2018-05-03T10:00:51.494Z,31.60
2018-05-03T10:03:18.948Z,31.80
2018-05-03T10:05:46.401Z,31.70
2018-05-03T10:08:13.856Z,31.90
2018-05-03T10:10:41.316Z,32.00
2018-05-03T10:13:08.791Z,32.40
2018-05-03T10:15:36.248Z,32.60
2018-05-03T10:18:04.471Z,32.20
2018-05-03T10:20:31.951Z,32.20
2018-05-03T10:22:59.411Z,32.00
2018-05-03T10:25:26.895Z,31.90
2018-05-03T10:27:55.161Z,31.80
2018-05-03T10:30:22.626Z,31.80
2018-05-03T10:32:50.865Z,31.90
2018-05-03T10:35:19.083Z,31.40
2018-05-03T10:37:47.304Z,31.40
2018-05-03T10:40:14.787Z,31.40
2018-05-03T10:42:42.244Z,31.60
2018-05-03T10:45:09.712Z,31.80
2018-05-03T10:47:37.167Z,31.60
2018-05-03T10:50:05.396Z,28.70
2018-05-03T10:52:32.859Z,28.60
2018-05-03T10:55:00.325Z,25.80
2018-05-03T10:57:27.826Z,26.30
2018-05-03T10:59:55.266Z,26.70
2018-05-03T11:02:22.721Z,23.90
2018-05-03T11:04:50.192Z,21.90
2018-05-03T11:07:18.444Z,23.20
2018-05-03T11:09:45.904Z,23.20
2018-05-03T11:12:13.364Z,24.00
2018-05-03T11:14:41.588Z,22.00
2018-05-03T11:17:09.820Z,20.90
2018-05-03T11:19:37.293Z,20.80
2018-05-03T11:22:04.744Z,20.30
2018-05-03T11:24:32.207Z,20.90
2018-05-03T11:26:59.672Z,22.40
2018-05-03T11:29:27.908Z,24.90
2018-05-03T11:31:56.127Z,24.60
2018-05-03T11:34:24.380Z,22.80
2018-05-03T11:36:51.883Z,22.80
2018-05-03T11:39:20.108Z,20.40
2018-05-03T11:41:47.568Z,20.20
2018-05-03T11:44:15.035Z,21.20
2018-05-03T11:46:42.496Z,22.90
2018-05-03T11:49:10.002Z,23.90
2018-05-03T11:51:37.461Z,21.90
2018-05-03T11:54:04.940Z,19.90
2018-05-03T11:56:32.413Z,18.70
2018-05-03T11:58:59.876Z,17.60
2018-05-03T12:01:27.357Z,16.80
2018-05-03T12:03:55.609Z,19.20
2018-05-03T12:06:23.072Z,19.20
2018-05-03T12:08:50.535Z,21.20
2018-05-03T12:11:17.996Z,22.80
2018-05-03T12:13:45.445Z,24.10
2018-05-03T12:16:12.916Z,25.20
2018-05-03T12:18:40.369Z,25.90
2018-05-03T12:21:07.833Z,26.30
2018-05-03T12:23:35.285Z,26.50
2018-05-03T12:26:02.738Z,24.40
2018-05-03T12:28:30.206Z,20.40
2018-05-03T12:30:57.660Z,20.50
2018-05-03T12:33:25.107Z,22.00
2018-05-03T12:35:52.574Z,20.70
2018-05-03T12:38:20.832Z,23.20
2018-05-03T12:40:48.291Z,23.10
2018-05-03T12:43:15.799Z,24.60
2018-05-03T12:45:43.308Z,26.00
2018-05-03T12:48:10.868Z,26.30
2018-05-03T12:50:38.328Z,26.80
2018-05-03T12:53:05.785Z,27.10
2018-05-03T12:55:33.240Z,25.30
2018-05-03T12:58:00.699Z,21.80
2018-05-03T13:00:28.952Z,22.20
2018-05-03T13:02:56.432Z,22.20
2018-05-03T13:05:23.901Z,23.60
2018-05-03T13:07:51.350Z,24.60
2018-05-03T13:10:18.811Z,25.10
2018-05-03T13:12:46.264Z,26.10
2018-05-03T13:15:13.720Z,25.70
2018-05-03T13:17:41.177Z,23.00
2018-05-03T13:20:08.651Z,19.60
2018-05-03T13:22:36.104Z,17.40
2018-05-03T13:25:03.564Z,16.10
2018-05-03T13:27:31.025Z,15.30
2018-05-03T13:29:58.464Z,14.70
2018-05-03T13:32:25.932Z,14.30
2018-05-03T13:34:53.397Z,14.00
2018-05-03T13:37:20.857Z,13.80
2018-05-03T13:39:49.080Z,13.60
2018-05-03T13:42:17.297Z,13.40
2018-05-03T13:44:44.752Z,13.40
2018-05-03T13:47:12.219Z,13.40
2018-05-03T13:49:40.456Z,13.40
2018-05-03T13:52:07.940Z,13.40
2018-05-03T13:54:35.401Z,13.50
2018-05-03T13:57:03.672Z,13.60
2018-05-03T13:59:31.125Z,13.50
2018-05-03T14:01:58.604Z,14.50
2018-05-03T14:04:26.056Z,16.70
2018-05-03T14:06:53.585Z,19.00
2018-05-03T14:09:21.065Z,20.80
2018-05-03T14:11:48.538Z,20.00
2018-05-03T14:14:15.991Z,19.50
2018-05-03T14:16:44.224Z,20.50
2018-05-03T14:19:11.708Z,20.40
2018-05-03T14:21:39.168Z,20.80
2018-05-03T14:24:07.415Z,21.30
2018-05-03T14:26:35.636Z,21.40
2018-05-03T14:29:03.889Z,21.60
2018-05-03T14:31:31.396Z,21.50
2018-05-03T14:33:59.624Z,21.90
2018-05-03T14:36:27.101Z,21.80
2018-05-03T14:38:55.335Z,23.20
2018-05-03T14:41:22.812Z,23.20
2018-05-03T14:43:50.276Z,23.40
2018-05-03T14:46:18.565Z,21.50
2018-05-03T14:48:46.012Z,21.50
2018-05-03T14:51:13.483Z,22.70
2018-05-03T14:53:41.727Z,22.60
2018-05-03T14:56:09.192Z,22.60
2018-05-03T14:58:36.653Z,23.80
2018-05-03T15:01:04.202Z,24.70
2018-05-03T15:03:32.363Z,25.40
2018-05-03T15:05:59.841Z,25.10
2018-05-03T15:08:28.050Z,25.60
2018-05-03T15:10:56.293Z,26.10
2018-05-03T15:13:23.762Z,26.10
2018-05-03T15:15:51.216Z,26.50
2018-05-03T15:18:18.722Z,26.50
2018-05-03T15:20:46.973Z,26.70
2018-05-03T15:23:15.235Z,27.00
2018-05-03T15:25:42.685Z,27.00
2018-05-03T15:28:10.151Z,27.40
2018-05-03T15:30:37.608Z,27.80
2018-05-03T15:33:05.077Z,27.80
2018-05-03T15:35:33.307Z,27.80
2018-05-03T15:38:00.792Z,27.80
2018-05-03T15:40:28.258Z,27.80
2018-05-03T15:42:55.713Z,27.80
2018-05-03T15:45:23.164Z,27.70
2018-05-03T15:47:50.640Z,27.80
2018-05-03T15:50:18.156Z,27.80
2018-05-03T15:52:45.640Z,28.10
2018-05-03T15:55:13.097Z,28.30
2018-05-03T15:57:41.344Z,28.70
2018-05-03T16:00:08.824Z,28.70
2018-05-03T16:02:36.383Z,29.00
2018-05-03T16:05:04.165Z,29.10
2018-05-03T16:07:32.441Z,29.40
2018-05-03T16:09:59.885Z,29.40
2018-05-03T16:12:27.339Z,29.60
2018-05-03T16:14:54.800Z,29.80
2018-05-03T16:17:22.248Z,30.00
2018-05-03T16:19:49.720Z,30.00
2018-05-03T16:22:17.459Z,30.10
2018-05-03T16:24:45.712Z,31.20
2018-05-03T16:27:13.288Z,30.40
2018-05-03T16:29:41.344Z,30.70
2018-05-03T16:32:08.839Z,30.80
2018-05-03T16:34:36.438Z,31.20
2018-05-03T16:37:03.767Z,31.50
2018-05-03T16:39:31.220Z,31.70
2018-05-03T16:42:03.147Z,31.90
2018-05-03T16:44:30.684Z,32.10
2018-05-03T16:46:58.193Z,32.30
2018-05-03T16:49:25.653Z,32.70
2018-05-03T16:51:53.108Z,33.10
2018-05-03T16:54:20.556Z,33.30
2018-05-03T16:56:48.020Z,33.70
2018-05-03T16:59:15.478Z,33.90
2018-05-03T17:01:42.930Z,34.20
2018-05-03T17:04:10.435Z,34.50
2018-05-03T17:06:38.735Z,35.00
2018-05-03T17:09:06.969Z,35.30
2018-05-03T17:11:34.417Z,35.20
2018-05-03T17:14:01.880Z,35.50
2018-05-03T17:16:30.166Z,35.90
2018-05-03T17:18:57.658Z,35.90
2018-05-03T17:21:27.371Z,36.00
2018-05-03T17:23:54.864Z,36.20
2018-05-03T17:26:22.404Z,36.40
2018-05-03T17:28:49.877Z,36.50
2018-05-03T17:31:17.351Z,36.60
2018-05-03T17:33:44.909Z,36.80
2018-05-03T17:36:13.186Z,37.10
2018-05-03T17:38:40.650Z,37.10
2018-05-03T17:41:08.112Z,37.30
2018-05-03T17:43:35.576Z,37.40
2018-05-03T17:46:03.011Z,37.60
2018-05-03T17:48:30.476Z,37.60
2018-05-03T17:50:57.933Z,37.90
2018-05-03T17:53:25.400Z,38.00
2018-05-03T17:55:52.862Z,38.20
2018-05-03T17:58:20.309Z,38.30
2018-05-03T18:00:50.682Z,38.50
2018-05-03T18:03:18.603Z,38.60
2018-05-03T18:05:46.048Z,38.80
2018-05-03T18:08:13.520Z,38.90
2018-05-03T18:10:41.043Z,39.70
2018-05-03T18:13:09.648Z,39.20
2018-05-03T18:15:37.105Z,39.40
2018-05-03T18:18:04.568Z,39.60
2018-05-03T18:20:32.020Z,39.70
2018-05-03T18:22:59.486Z,39.90
2018-05-03T18:25:26.940Z,40.00
2018-05-03T18:27:54.396Z,40.20
2018-05-03T18:30:21.851Z,40.30
2018-05-03T18:32:49.337Z,40.40
2018-05-03T18:35:16.779Z,40.50
2018-05-03T18:37:44.223Z,40.70
2018-05-03T18:40:11.684Z,40.80
2018-05-03T18:42:39.234Z,40.90
2018-05-03T18:45:06.701Z,41.00
2018-05-03T18:47:34.149Z,41.10
2018-05-03T18:50:02.552Z,41.20
2018-05-03T18:52:30.064Z,41.40
2018-05-03T18:54:57.540Z,41.50
2018-05-03T18:57:24.992Z,41.70
2018-05-03T18:59:52.511Z,41.70
2018-05-03T19:02:20.758Z,42.00
2018-05-03T19:04:48.282Z,42.00
2018-05-03T19:07:15.776Z,42.10
2018-05-03T19:09:43.293Z,42.10
2018-05-03T19:12:10.778Z,42.20
2018-05-03T19:14:38.312Z,42.40
2018-05-03T19:17:06.493Z,42.70
2018-05-03T19:19:33.961Z,42.60
2018-05-03T19:22:01.426Z,42.80
2018-05-03T19:24:28.883Z,43.00
2018-05-03T19:26:56.340Z,43.00
2018-05-03T19:29:23.838Z,43.10
2018-05-03T19:31:51.262Z,43.10
2018-05-03T19:34:18.755Z,43.20
2018-05-03T19:36:46.223Z,43.40
2018-05-03T19:39:13.715Z,43.50
2018-05-03T19:41:41.170Z,43.70
2018-05-03T19:44:09.409Z,44.40
2018-05-03T19:46:36.896Z,44.00
2018-05-03T19:49:04.362Z,43.80
2018-05-03T19:51:31.819Z,44.00
2018-05-03T19:53:59.279Z,44.10
2018-05-03T19:56:26.748Z,44.00
2018-05-03T19:58:54.972Z,44.30
2018-05-03T20:01:22.453Z,44.20
2018-05-03T20:03:49.975Z,44.20
2018-05-03T20:06:18.172Z,44.40
2018-05-03T20:08:45.689Z,44.30
2018-05-03T20:11:13.136Z,44.50
2018-05-03T20:13:40.635Z,44.60
2018-05-03T20:16:08.913Z,44.80
2018-05-03T20:18:37.142Z,44.90
2018-05-03T20:21:04.585Z,44.90
2018-05-03T20:23:32.041Z,45.00
2018-05-03T20:25:59.493Z,45.00
2018-05-03T20:28:26.956Z,45.10
2018-05-03T20:30:54.428Z,45.30
2018-05-03T20:33:21.883Z,45.20
2018-05-03T20:35:49.344Z,45.20
2018-05-03T20:38:16.793Z,45.40
2018-05-03T20:40:44.252Z,45.60
2018-05-03T20:43:11.711Z,45.70
2018-05-03T20:45:39.169Z,45.70
2018-05-03T20:48:06.612Z,45.70
2018-05-03T20:50:34.080Z,45.80
2018-05-03T20:53:01.563Z,45.90
2018-05-03T20:55:29.005Z,46.00
2018-05-03T20:57:56.469Z,46.00
2018-05-03T21:00:23.955Z,46.10
2018-05-03T21:02:52.178Z,46.20
2018-05-03T21:05:19.650Z,46.20
2018-05-03T21:07:47.196Z,46.20
2018-05-03T21:10:14.660Z,46.30
2018-05-03T21:12:42.133Z,46.40
2018-05-03T21:15:09.576Z,46.40
2018-05-03T21:17:37.037Z,46.70
2018-05-03T21:20:05.277Z,46.70
2018-05-03T21:22:32.738Z,46.60
2018-05-03T21:25:00.200Z,46.80
2018-05-03T21:27:27.656Z,46.90
2018-05-03T21:29:55.137Z,46.90
2018-05-03T21:32:22.616Z,47.00
2018-05-03T21:34:50.280Z,47.00
2018-05-03T21:37:17.728Z,47.10
2018-05-03T21:39:45.193Z,47.20
2018-05-03T21:42:12.637Z,47.20
2018-05-03T21:44:40.094Z,47.30
2018-05-03T21:47:07.545Z,47.40
2018-05-03T21:49:35.001Z,47.40
2018-05-03T21:52:02.453Z,47.50
2018-05-03T21:54:29.928Z,47.50
2018-05-03T21:56:57.378Z,47.60
2018-05-03T21:59:24.851Z,47.80
2018-05-03T22:01:52.314Z,47.80
2018-05-03T22:04:19.751Z,47.90
2018-05-03T22:06:47.241Z,48.00
2018-05-03T22:09:15.488Z,48.00
2018-05-03T22:11:42.947Z,48.00
2018-05-03T22:14:10.396Z,48.10
2018-05-03T22:16:38.635Z,48.30
2018-05-03T22:19:06.090Z,48.30
2018-05-03T22:21:33.559Z,48.40
2018-05-03T22:24:01.025Z,48.40
2018-05-03T22:26:28.492Z,48.50
2018-05-03T22:28:55.945Z,48.60
2018-05-03T22:31:23.403Z,48.60
2018-05-03T22:33:50.871Z,48.70
2018-05-03T22:36:18.332Z,48.80
2018-05-03T22:38:45.780Z,48.80
2018-05-03T22:41:16.003Z,48.90
2018-05-03T22:43:44.388Z,48.90
2018-05-03T22:46:11.848Z,48.90
2018-05-03T22:48:39.305Z,49.00
2018-05-03T22:51:06.765Z,49.10
2018-05-03T22:53:34.232Z,49.20
2018-05-03T22:56:01.691Z,49.30
2018-05-03T22:58:29.149Z,49.30
2018-05-03T23:00:56.610Z,49.40
2018-05-03T23:03:24.082Z,49.40
2018-05-03T23:05:51.542Z,49.40
2018-05-03T23:08:18.985Z,49.60
2018-05-03T23:10:46.437Z,49.60
2018-05-03T23:13:13.911Z,49.70
2018-05-03T23:15:42.139Z,49.80
2018-05-03T23:18:09.604Z,49.80
2018-05-03T23:20:37.120Z,49.90
2018-05-03T23:23:04.561Z,50.00
2018-05-03T23:25:32.020Z,50.10
2018-05-03T23:27:59.481Z,50.10
2018-05-03T23:30:26.989Z,50.10
2018-05-03T23:32:55.164Z,50.20
2018-05-03T23:35:22.632Z,50.10
2018-05-03T23:37:50.099Z,51.00
2018-05-03T23:40:17.556Z,50.50
2018-05-03T23:42:44.995Z,50.70
2018-05-03T23:45:12.448Z,50.80
2018-05-03T23:47:39.924Z,51.00
2018-05-03T23:50:07.377Z,51.10
2018-05-03T23:52:34.840Z,51.40
2018-05-03T23:55:03.065Z,51.80
2018-05-03T23:57:30.532Z,51.80
2018-05-03T23:59:57.989Z,51.90
